sensor_id;sensor_type;location;lat;lon;timestamp;pressure;altitude;pressure_sealevel;temperature;humidity
32638;BME280;19045;52.268;10.506;2022-11-20T00:02:09;100343.31;;;-2.19;91.42
32638;BME280;19045;52.268;10.506;2022-11-20T00:04:36;100331.97;;;-2.20;91.12
32638;BME280;19045;52.268;10.506;2022-11-20T00:07:03;100335.72;;;-2.14;91.27
32638;BME280;19045;52.268;10.506;2022-11-20T00:09:30;100332.81;;;-2.19;91.76
32638;BME280;19045;52.268;10.506;2022-11-20T00:11:56;100327.06;;;-2.23;91.80
32638;BME280;19045;52.268;10.506;2022-11-20T00:14:23;100324.81;;;-2.26;92.00
32638;BME280;19045;52.268;10.506;2022-11-20T00:16:50;100328.69;;;-2.22;91.60
32638;BME280;19045;52.268;10.506;2022-11-20T00:19:16;100323.63;;;-2.23;92.04
32638;BME280;19045;52.268;10.506;2022-11-20T00:21:44;100333.59;;;-2.19;91.80
32638;BME280;19045;52.268;10.506;2022-11-20T00:24:11;100321.56;;;-2.13;91.46
32638;BME280;19045;52.268;10.506;2022-11-20T00:26:38;100325.03;;;-2.13;91.19
32638;BME280;19045;52.268;10.506;2022-11-20T00:29:04;100313.47;;;-2.12;90.66
32638;BME280;19045;52.268;10.506;2022-11-20T00:31:31;100314.75;;;-2.08;90.44
32638;BME280;19045;52.268;10.506;2022-11-20T00:33:58;100321.72;;;-2.15;91.50
32638;BME280;19045;52.268;10.506;2022-11-20T00:36:26;100317.19;;;-2.21;91.29
32638;BME280;19045;52.268;10.506;2022-11-20T00:38:57;100312.75;;;-2.20;91.23
32638;BME280;19045;52.268;10.506;2022-11-20T00:41:24;100319.44;;;-2.32;91.75
32638;BME280;19045;52.268;10.506;2022-11-20T00:43:52;100321.75;;;-2.37;91.67
32638;BME280;19045;52.268;10.506;2022-11-20T00:46:21;100324.56;;;-2.39;92.17
32638;BME280;19045;52.268;10.506;2022-11-20T00:48:48;100314.06;;;-2.39;91.91
32638;BME280;19045;52.268;10.506;2022-11-20T00:51:17;100324.28;;;-2.44;92.08
32638;BME280;19045;52.268;10.506;2022-11-20T00:53:45;100316.91;;;-2.48;92.82
32638;BME280;19045;52.268;10.506;2022-11-20T00:56:14;100312.75;;;-2.43;91.50
32638;BME280;19045;52.268;10.506;2022-11-20T00:58:42;100313.47;;;-2.49;92.22
32638;BME280;19045;52.268;10.506;2022-11-20T01:01:10;100317.56;;;-2.46;91.95
32638;BME280;19045;52.268;10.506;2022-11-20T01:03:39;100319.72;;;-2.50;91.62
32638;BME280;19045;52.268;10.506;2022-11-20T01:06:08;100314.47;;;-2.50;91.99
32638;BME280;19045;52.268;10.506;2022-11-20T01:08:36;100318.41;;;-2.54;92.21
32638;BME280;19045;52.268;10.506;2022-11-20T01:11:05;100311.81;;;-2.50;92.51
32638;BME280;19045;52.268;10.506;2022-11-20T01:13:33;100314.09;;;-2.47;91.94
32638;BME280;19045;52.268;10.506;2022-11-20T01:16:04;100307.09;;;-2.54;91.70
32638;BME280;19045;52.268;10.506;2022-11-20T01:18:31;100304.06;;;-2.66;92.11
32638;BME280;19045;52.268;10.506;2022-11-20T01:21:00;100308.03;;;-2.70;93.21
32638;BME280;19045;52.268;10.506;2022-11-20T01:23:30;100300.13;;;-2.70;93.04
32638;BME280;19045;52.268;10.506;2022-11-20T01:25:59;100296.66;;;-2.63;92.30
32638;BME280;19045;52.268;10.506;2022-11-20T01:28:26;100295.16;;;-2.65;92.39
32638;BME280;19045;52.268;10.506;2022-11-20T01:30:54;100292.13;;;-2.77;93.28
32638;BME280;19045;52.268;10.506;2022-11-20T01:33:21;100295.22;;;-2.73;92.64
32638;BME280;19045;52.268;10.506;2022-11-20T01:35:47;100294.72;;;-2.69;93.34
32638;BME280;19045;52.268;10.506;2022-11-20T01:38:15;100286.63;;;-2.67;92.67
32638;BME280;19045;52.268;10.506;2022-11-20T01:40:42;100279.38;;;-2.65;93.19
32638;BME280;19045;52.268;10.506;2022-11-20T01:43:14;100278.47;;;-2.72;93.04
32638;BME280;19045;52.268;10.506;2022-11-20T01:46:22;100275.53;;;-2.77;93.19
32638;BME280;19045;52.268;10.506;2022-11-20T01:48:51;100272.97;;;-2.85;93.70
32638;BME280;19045;52.268;10.506;2022-11-20T01:51:28;100278.25;;;-2.85;93.00
32638;BME280;19045;52.268;10.506;2022-11-20T01:53:57;100281.03;;;-2.87;93.89
32638;BME280;19045;52.268;10.506;2022-11-20T01:56:27;100269.69;;;-2.87;93.69
32638;BME280;19045;52.268;10.506;2022-11-20T01:58:56;100269.22;;;-2.91;93.59
32638;BME280;19045;52.268;10.506;2022-11-20T02:01:26;100256.63;;;-2.95;94.35
32638;BME280;19045;52.268;10.506;2022-11-20T02:03:52;100263.84;;;-2.97;94.28
32638;BME280;19045;52.268;10.506;2022-11-20T02:06:23;100254.84;;;-3.03;94.49
32638;BME280;19045;52.268;10.506;2022-11-20T02:08:51;100262.53;;;-3.01;94.81
32638;BME280;19045;52.268;10.506;2022-11-20T02:11:18;100256.50;;;-3.02;94.67
32638;BME280;19045;52.268;10.506;2022-11-20T02:13:45;100253.16;;;-2.96;94.23
32638;BME280;19045;52.268;10.506;2022-11-20T02:16:16;100251.41;;;-3.03;94.52
32638;BME280;19045;52.268;10.506;2022-11-20T02:18:45;100260.69;;;-3.16;95.20
32638;BME280;19045;52.268;10.506;2022-11-20T02:21:20;100250.81;;;-3.14;95.89
32638;BME280;19045;52.268;10.506;2022-11-20T02:24:04;100249.94;;;-3.06;94.88
32638;BME280;19045;52.268;10.506;2022-11-20T02:26:34;100248.19;;;-3.14;94.80
32638;BME280;19045;52.268;10.506;2022-11-20T02:29:03;100254.84;;;-3.03;94.55
32638;BME280;19045;52.268;10.506;2022-11-20T02:31:36;100251.75;;;-3.06;94.91
32638;BME280;19045;52.268;10.506;2022-11-20T02:34:03;100244.50;;;-3.04;95.16
32638;BME280;19045;52.268;10.506;2022-11-20T02:36:30;100257.66;;;-3.04;95.11
32638;BME280;19045;52.268;10.506;2022-11-20T02:38:58;100255.56;;;-3.09;95.57
32638;BME280;19045;52.268;10.506;2022-11-20T02:41:35;100248.06;;;-2.97;95.08
32638;BME280;19045;52.268;10.506;2022-11-20T02:44:02;100243.75;;;-2.90;94.15
32638;BME280;19045;52.268;10.506;2022-11-20T02:46:30;100247.44;;;-2.99;94.61
32638;BME280;19045;52.268;10.506;2022-11-20T02:48:56;100238.28;;;-2.81;94.16
32638;BME280;19045;52.268;10.506;2022-11-20T02:51:23;100238.94;;;-2.79;93.91
32638;BME280;19045;52.268;10.506;2022-11-20T02:53:50;100244.41;;;-2.88;94.61
32638;BME280;19045;52.268;10.506;2022-11-20T02:56:17;100238.75;;;-2.77;94.08
32638;BME280;19045;52.268;10.506;2022-11-20T02:58:45;100242.81;;;-2.75;93.21
32638;BME280;19045;52.268;10.506;2022-11-20T03:01:11;100238.03;;;-2.71;93.70
32638;BME280;19045;52.268;10.506;2022-11-20T03:03:38;100237.69;;;-2.68;93.84
32638;BME280;19045;52.268;10.506;2022-11-20T03:06:05;100232.06;;;-2.65;93.39
32638;BME280;19045;52.268;10.506;2022-11-20T03:08:32;100232.41;;;-2.68;93.69
32638;BME280;19045;52.268;10.506;2022-11-20T03:11:02;100230.81;;;-2.69;93.47
32638;BME280;19045;52.268;10.506;2022-11-20T03:13:29;100234.41;;;-2.70;93.63
32638;BME280;19045;52.268;10.506;2022-11-20T03:15:57;100233.78;;;-2.72;93.42
32638;BME280;19045;52.268;10.506;2022-11-20T03:18:27;100235.59;;;-2.73;93.73
32638;BME280;19045;52.268;10.506;2022-11-20T03:20:57;100237.88;;;-2.70;93.62
32638;BME280;19045;52.268;10.506;2022-11-20T03:23:24;100236.69;;;-2.67;93.53
32638;BME280;19045;52.268;10.506;2022-11-20T03:25:51;100236.59;;;-2.74;93.92
32638;BME280;19045;52.268;10.506;2022-11-20T03:28:17;100238.63;;;-2.61;93.39
32638;BME280;19045;52.268;10.506;2022-11-20T03:30:44;100234.84;;;-2.58;93.02
32638;BME280;19045;52.268;10.506;2022-11-20T03:33:12;100228.22;;;-2.54;93.04
32638;BME280;19045;52.268;10.506;2022-11-20T03:35:39;100232.00;;;-2.57;92.83
32638;BME280;19045;52.268;10.506;2022-11-20T03:38:05;100234.94;;;-2.52;92.82
32638;BME280;19045;52.268;10.506;2022-11-20T03:40:34;100229.69;;;-2.52;92.82
32638;BME280;19045;52.268;10.506;2022-11-20T03:43:01;100227.06;;;-2.52;92.37
32638;BME280;19045;52.268;10.506;2022-11-20T03:45:27;100229.03;;;-2.54;93.38
32638;BME280;19045;52.268;10.506;2022-11-20T03:47:54;100218.72;;;-2.55;93.76
32638;BME280;19045;52.268;10.506;2022-11-20T03:50:22;100222.44;;;-2.50;92.95
32638;BME280;19045;52.268;10.506;2022-11-20T03:52:48;100212.72;;;-2.49;92.13
32638;BME280;19045;52.268;10.506;2022-11-20T03:55:15;100209.75;;;-2.46;91.62
32638;BME280;19045;52.268;10.506;2022-11-20T03:57:42;100209.28;;;-2.50;91.68
32638;BME280;19045;52.268;10.506;2022-11-20T04:00:09;100210.09;;;-2.49;92.28
32638;BME280;19045;52.268;10.506;2022-11-20T04:02:36;100202.09;;;-2.56;92.07
32638;BME280;19045;52.268;10.506;2022-11-20T04:05:03;100203.34;;;-2.67;92.59
32638;BME280;19045;52.268;10.506;2022-11-20T04:07:33;100209.78;;;-2.69;93.43
32638;BME280;19045;52.268;10.506;2022-11-20T04:10:00;100204.19;;;-2.51;91.87
32638;BME280;19045;52.268;10.506;2022-11-20T04:12:27;100200.69;;;-2.44;91.14
32638;BME280;19045;52.268;10.506;2022-11-20T04:14:53;100200.81;;;-2.60;91.57
32638;BME280;19045;52.268;10.506;2022-11-20T04:17:20;100200.19;;;-2.62;92.35
32638;BME280;19045;52.268;10.506;2022-11-20T04:19:46;100201.44;;;-2.58;91.61
32638;BME280;19045;52.268;10.506;2022-11-20T04:22:13;100200.00;;;-2.61;91.89
32638;BME280;19045;52.268;10.506;2022-11-20T04:24:41;100206.44;;;-2.63;92.31
32638;BME280;19045;52.268;10.506;2022-11-20T04:27:08;100195.16;;;-2.72;92.49
32638;BME280;19045;52.268;10.506;2022-11-20T04:29:34;100203.25;;;-2.73;93.36
32638;BME280;19045;52.268;10.506;2022-11-20T04:32:01;100199.91;;;-2.67;93.35
32638;BME280;19045;52.268;10.506;2022-11-20T04:34:27;100193.25;;;-2.78;92.90
32638;BME280;19045;52.268;10.506;2022-11-20T04:36:54;100195.06;;;-2.78;93.43
32638;BME280;19045;52.268;10.506;2022-11-20T04:39:21;100184.09;;;-2.82;93.36
32638;BME280;19045;52.268;10.506;2022-11-20T04:41:49;100184.25;;;-2.83;94.00
32638;BME280;19045;52.268;10.506;2022-11-20T04:44:35;100189.00;;;-2.79;93.18
32638;BME280;19045;52.268;10.506;2022-11-20T04:47:02;100185.25;;;-2.84;94.05
32638;BME280;19045;52.268;10.506;2022-11-20T04:49:28;100193.72;;;-2.74;93.92
32638;BME280;19045;52.268;10.506;2022-11-20T04:51:56;100185.78;;;-2.89;94.36
32638;BME280;19045;52.268;10.506;2022-11-20T04:54:23;100185.22;;;-2.99;94.95
32638;BME280;19045;52.268;10.506;2022-11-20T04:56:51;100186.31;;;-2.93;95.99
32638;BME280;19045;52.268;10.506;2022-11-20T04:59:18;100185.50;;;-2.94;95.85
32638;BME280;19045;52.268;10.506;2022-11-20T05:01:44;100184.31;;;-2.91;96.00
32638;BME280;19045;52.268;10.506;2022-11-20T05:04:11;100183.84;;;-2.95;96.36
32638;BME280;19045;52.268;10.506;2022-11-20T05:06:38;100192.91;;;-2.97;96.15
32638;BME280;19045;52.268;10.506;2022-11-20T05:09:04;100186.53;;;-2.80;94.42
32638;BME280;19045;52.268;10.506;2022-11-20T05:11:31;100178.59;;;-2.95;95.28
32638;BME280;19045;52.268;10.506;2022-11-20T05:13:59;100179.72;;;-2.89;94.70
32638;BME280;19045;52.268;10.506;2022-11-20T05:16:26;100177.44;;;-2.92;95.57
32638;BME280;19045;52.268;10.506;2022-11-20T05:18:53;100179.16;;;-2.85;94.05
32638;BME280;19045;52.268;10.506;2022-11-20T05:21:20;100176.72;;;-2.86;93.85
32638;BME280;19045;52.268;10.506;2022-11-20T05:23:47;100173.13;;;-2.85;93.19
32638;BME280;19045;52.268;10.506;2022-11-20T05:26:16;100183.63;;;-2.85;93.56
32638;BME280;19045;52.268;10.506;2022-11-20T05:28:43;100180.00;;;-2.84;93.54
32638;BME280;19045;52.268;10.506;2022-11-20T05:31:13;100184.25;;;-2.83;93.27
32638;BME280;19045;52.268;10.506;2022-11-20T05:33:41;100182.97;;;-2.87;93.31
32638;BME280;19045;52.268;10.506;2022-11-20T05:36:09;100177.56;;;-2.86;93.46
32638;BME280;19045;52.268;10.506;2022-11-20T05:38:36;100174.63;;;-2.91;93.43
32638;BME280;19045;52.268;10.506;2022-11-20T05:41:04;100169.84;;;-2.87;93.46
32638;BME280;19045;52.268;10.506;2022-11-20T05:43:32;100165.34;;;-2.79;93.83
32638;BME280;19045;52.268;10.506;2022-11-20T05:45:59;100157.94;;;-2.75;92.68
32638;BME280;19045;52.268;10.506;2022-11-20T05:48:27;100155.56;;;-2.70;92.67
32638;BME280;19045;52.268;10.506;2022-11-20T05:50:53;100152.94;;;-2.70;92.11
32638;BME280;19045;52.268;10.506;2022-11-20T05:53:20;100152.47;;;-2.74;92.29
32638;BME280;19045;52.268;10.506;2022-11-20T05:55:56;100154.63;;;-2.77;91.80
32638;BME280;19045;52.268;10.506;2022-11-20T05:58:22;100151.13;;;-2.70;92.85
32638;BME280;19045;52.268;10.506;2022-11-20T06:00:50;100161.13;;;-2.50;95.54
32638;BME280;19045;52.268;10.506;2022-11-20T06:03:17;100171.66;;;-2.50;96.32
32638;BME280;19045;52.268;10.506;2022-11-20T06:05:45;100165.50;;;-2.43;96.63
32638;BME280;19045;52.268;10.506;2022-11-20T06:08:12;100158.69;;;-2.37;94.89
32638;BME280;19045;52.268;10.506;2022-11-20T06:10:39;100167.56;;;-2.38;94.83
32638;BME280;19045;52.268;10.506;2022-11-20T06:13:06;100158.78;;;-2.31;92.91
32638;BME280;19045;52.268;10.506;2022-11-20T06:15:32;100162.25;;;-2.30;91.21
32638;BME280;19045;52.268;10.506;2022-11-20T06:17:59;100163.78;;;-2.36;90.95
32638;BME280;19045;52.268;10.506;2022-11-20T06:20:25;100154.44;;;-2.38;91.91
32638;BME280;19045;52.268;10.506;2022-11-20T06:22:53;100156.88;;;-2.37;90.44
32638;BME280;19045;52.268;10.506;2022-11-20T06:25:20;100159.22;;;-2.42;91.15
32638;BME280;19045;52.268;10.506;2022-11-20T06:27:47;100153.06;;;-2.49;91.41
32638;BME280;19045;52.268;10.506;2022-11-20T06:30:13;100152.41;;;-2.51;91.06
32638;BME280;19045;52.268;10.506;2022-11-20T06:32:40;100146.69;;;-2.54;91.49
32638;BME280;19045;52.268;10.506;2022-11-20T06:35:08;100144.44;;;-2.57;91.32
32638;BME280;19045;52.268;10.506;2022-11-20T06:37:34;100142.38;;;-2.62;91.16
32638;BME280;19045;52.268;10.506;2022-11-20T06:40:03;100145.25;;;-2.57;91.24
32638;BME280;19045;52.268;10.506;2022-11-20T06:42:30;100149.88;;;-2.59;91.30
32638;BME280;19045;52.268;10.506;2022-11-20T06:44:56;100145.25;;;-2.57;91.47
32638;BME280;19045;52.268;10.506;2022-11-20T06:47:23;100138.34;;;-2.58;90.71
32638;BME280;19045;52.268;10.506;2022-11-20T06:49:49;100140.91;;;-2.50;90.85
32638;BME280;19045;52.268;10.506;2022-11-20T06:52:16;100143.72;;;-2.51;90.96
32638;BME280;19045;52.268;10.506;2022-11-20T06:54:43;100139.00;;;-2.41;90.40
32638;BME280;19045;52.268;10.506;2022-11-20T06:57:11;100148.19;;;-2.37;90.00
32638;BME280;19045;52.268;10.506;2022-11-20T06:59:37;100134.56;;;-2.41;88.98
32638;BME280;19045;52.268;10.506;2022-11-20T07:02:04;100139.66;;;-2.25;92.60
32638;BME280;19045;52.268;10.506;2022-11-20T07:04:31;100130.22;;;-2.04;92.52
32638;BME280;19045;52.268;10.506;2022-11-20T07:06:57;100133.81;;;-1.91;91.60
32638;BME280;19045;52.268;10.506;2022-11-20T07:09:24;100141.78;;;-1.70;90.56
32638;BME280;19045;52.268;10.506;2022-11-20T07:11:50;100136.91;;;-1.87;88.66
32638;BME280;19045;52.268;10.506;2022-11-20T07:14:19;100127.88;;;-1.99;87.84
32638;BME280;19045;52.268;10.506;2022-11-20T07:16:45;100130.69;;;-2.16;88.60
32638;BME280;19045;52.268;10.506;2022-11-20T07:19:12;100135.31;;;-2.18;89.34
32638;BME280;19045;52.268;10.506;2022-11-20T07:21:39;100129.50;;;-2.13;88.52
32638;BME280;19045;52.268;10.506;2022-11-20T07:24:06;100135.66;;;-2.35;87.74
32638;BME280;19045;52.268;10.506;2022-11-20T07:26:33;100132.84;;;-2.34;88.03
32638;BME280;19045;52.268;10.506;2022-11-20T07:28:59;100141.94;;;-2.36;88.11
32638;BME280;19045;52.268;10.506;2022-11-20T07:31:27;100132.69;;;-2.32;87.35
32638;BME280;19045;52.268;10.506;2022-11-20T07:33:54;100143.22;;;-2.32;86.88
32638;BME280;19045;52.268;10.506;2022-11-20T07:36:20;100129.59;;;-2.36;87.09
32638;BME280;19045;52.268;10.506;2022-11-20T07:38:47;100140.84;;;-2.27;87.09
32638;BME280;19045;52.268;10.506;2022-11-20T07:41:14;100138.41;;;-2.29;87.53
32638;BME280;19045;52.268;10.506;2022-11-20T07:43:41;100144.19;;;-2.33;87.12
32638;BME280;19045;52.268;10.506;2022-11-20T07:46:08;100137.13;;;-2.33;87.64
32638;BME280;19045;52.268;10.506;2022-11-20T07:48:36;100137.47;;;-2.21;86.88
32638;BME280;19045;52.268;10.506;2022-11-20T07:51:02;100139.28;;;-2.22;87.32
32638;BME280;19045;52.268;10.506;2022-11-20T07:53:29;100135.22;;;-2.24;87.07
32638;BME280;19045;52.268;10.506;2022-11-20T07:55:59;100140.94;;;-2.21;87.26
32638;BME280;19045;52.268;10.506;2022-11-20T07:58:26;100134.94;;;-2.15;87.09
32638;BME280;19045;52.268;10.506;2022-11-20T08:00:52;100138.03;;;-2.11;87.18
32638;BME280;19045;52.268;10.506;2022-11-20T08:03:19;100140.66;;;-2.11;86.33
32638;BME280;19045;52.268;10.506;2022-11-20T08:05:47;100140.03;;;-2.13;86.19
32638;BME280;19045;52.268;10.506;2022-11-20T08:08:14;100125.59;;;-2.02;85.24
32638;BME280;19045;52.268;10.506;2022-11-20T08:10:40;100126.38;;;-2.02;85.61
32638;BME280;19045;52.268;10.506;2022-11-20T08:13:08;100125.97;;;-2.05;85.24
32638;BME280;19045;52.268;10.506;2022-11-20T08:15:52;100125.84;;;-1.97;84.96
32638;BME280;19045;52.268;10.506;2022-11-20T08:18:19;100133.50;;;-2.02;84.94
32638;BME280;19045;52.268;10.506;2022-11-20T08:20:47;100129.38;;;-2.05;85.24
32638;BME280;19045;52.268;10.506;2022-11-20T08:23:14;100134.56;;;-1.97;84.69
32638;BME280;19045;52.268;10.506;2022-11-20T08:25:40;100141.63;;;-1.97;84.69
32638;BME280;19045;52.268;10.506;2022-11-20T08:28:08;100150.28;;;-2.03;85.62
32638;BME280;19045;52.268;10.506;2022-11-20T08:30:36;100144.38;;;-2.05;85.95
32638;BME280;19045;52.268;10.506;2022-11-20T08:33:04;100153.06;;;-2.05;85.87
32638;BME280;19045;52.268;10.506;2022-11-20T08:35:33;100151.09;;;-2.03;86.28
32638;BME280;19045;52.268;10.506;2022-11-20T08:38:02;100143.66;;;-1.99;85.92
32638;BME280;19045;52.268;10.506;2022-11-20T08:42:56;100142.91;;;-1.93;85.64
32638;BME280;19045;52.268;10.506;2022-11-20T08:45:23;100146.81;;;-2.04;84.61
32638;BME280;19045;52.268;10.506;2022-11-20T08:47:50;100149.81;;;-2.07;85.88
32638;BME280;19045;52.268;10.506;2022-11-20T08:50:17;100142.63;;;-1.98;85.05
32638;BME280;19045;52.268;10.506;2022-11-20T08:52:44;100139.47;;;-1.94;84.61
32638;BME280;19045;52.268;10.506;2022-11-20T08:55:12;100146.81;;;-1.89;84.67
32638;BME280;19045;52.268;10.506;2022-11-20T08:57:38;100141.63;;;-1.83;84.69
32638;BME280;19045;52.268;10.506;2022-11-20T09:00:09;100141.81;;;-1.84;83.76
32638;BME280;19045;52.268;10.506;2022-11-20T09:02:36;100136.75;;;-1.86;83.96
32638;BME280;19045;52.268;10.506;2022-11-20T09:05:04;100139.09;;;-1.76;84.01
32638;BME280;19045;52.268;10.506;2022-11-20T09:07:30;100142.09;;;-1.79;83.56
32638;BME280;19045;52.268;10.506;2022-11-20T09:09:57;100134.06;;;-1.71;83.44
32638;BME280;19045;52.268;10.506;2022-11-20T09:12:25;100132.09;;;-1.69;83.28
32638;BME280;19045;52.268;10.506;2022-11-20T09:14:52;100133.16;;;-1.64;82.71
32638;BME280;19045;52.268;10.506;2022-11-20T09:17:19;100129.38;;;-1.54;82.43
32638;BME280;19045;52.268;10.506;2022-11-20T09:19:48;100122.16;;;-1.52;82.15
32638;BME280;19045;52.268;10.506;2022-11-20T09:22:15;100109.38;;;-1.49;81.39
32638;BME280;19045;52.268;10.506;2022-11-20T09:24:41;100117.00;;;-1.39;81.00
32638;BME280;19045;52.268;10.506;2022-11-20T09:27:08;100109.84;;;-1.24;81.16
32638;BME280;19045;52.268;10.506;2022-11-20T09:29:39;100109.59;;;-1.08;80.40
32638;BME280;19045;52.268;10.506;2022-11-20T09:32:06;100101.50;;;-0.79;79.04
32638;BME280;19045;52.268;10.506;2022-11-20T09:34:33;100099.59;;;-0.64;77.97
32638;BME280;19045;52.268;10.506;2022-11-20T09:37:00;100103.81;;;-0.41;76.46
32638;BME280;19045;52.268;10.506;2022-11-20T09:39:44;100104.72;;;-0.21;74.40
32638;BME280;19045;52.268;10.506;2022-11-20T09:42:25;100113.44;;;0.20;71.89
32638;BME280;19045;52.268;10.506;2022-11-20T09:45:08;100115.44;;;0.72;69.94
32638;BME280;19045;52.268;10.506;2022-11-20T09:47:48;100109.94;;;1.26;67.30
32638;BME280;19045;52.268;10.506;2022-11-20T09:50:27;100111.59;;;1.14;67.03
32638;BME280;19045;52.268;10.506;2022-11-20T09:53:11;100110.94;;;1.65;67.05
32638;BME280;19045;52.268;10.506;2022-11-20T09:55:44;100106.59;;;1.83;64.99
32638;BME280;19045;52.268;10.506;2022-11-20T09:58:37;100101.25;;;1.96;64.61
32638;BME280;19045;52.268;10.506;2022-11-20T10:01:13;100103.56;;;2.31;63.55
32638;BME280;19045;52.268;10.506;2022-11-20T10:03:49;100096.47;;;2.25;62.72
32638;BME280;19045;52.268;10.506;2022-11-20T10:06:21;100097.06;;;2.27;60.86
32638;BME280;19045;52.268;10.506;2022-11-20T10:08:58;100083.81;;;1.69;62.61
32638;BME280;19045;52.268;10.506;2022-11-20T10:11:33;100088.75;;;1.66;64.04
32638;BME280;19045;52.268;10.506;2022-11-20T10:14:09;100091.19;;;1.61;62.96
32638;BME280;19045;52.268;10.506;2022-11-20T10:16:46;100085.63;;;1.88;62.33
32638;BME280;19045;52.268;10.506;2022-11-20T10:19:30;100097.00;;;2.40;61.81
32638;BME280;19045;52.268;10.506;2022-11-20T10:22:06;100093.91;;;5.22;54.58
32638;BME280;19045;52.268;10.506;2022-11-20T10:24:44;100093.34;;;4.37;53.38
32638;BME280;19045;52.268;10.506;2022-11-20T10:27:31;100092.44;;;4.13;54.72
32638;BME280;19045;52.268;10.506;2022-11-20T10:30:08;100097.28;;;2.94;58.62
32638;BME280;19045;52.268;10.506;2022-11-20T10:32:38;100104.84;;;2.59;61.03
32638;BME280;19045;52.268;10.506;2022-11-20T10:35:16;100095.44;;;2.64;61.26
32638;BME280;19045;52.268;10.506;2022-11-20T10:37:48;100088.13;;;2.59;61.21
32638;BME280;19045;52.268;10.506;2022-11-20T10:40:22;100084.13;;;1.28;65.24
32638;BME280;19045;52.268;10.506;2022-11-20T10:42:53;100087.66;;;1.86;65.15
32638;BME280;19045;52.268;10.506;2022-11-20T10:45:32;100077.41;;;3.03;60.31
32638;BME280;19045;52.268;10.506;2022-11-20T10:48:12;100072.19;;;3.40;58.20
32638;BME280;19045;52.268;10.506;2022-11-20T10:50:49;100077.09;;;3.18;59.30
32638;BME280;19045;52.268;10.506;2022-11-20T10:53:31;100078.91;;;2.93;59.62
32638;BME280;19045;52.268;10.506;2022-11-20T10:56:05;100072.22;;;3.76;58.02
32638;BME280;19045;52.268;10.506;2022-11-20T10:58:40;100073.09;;;3.70;57.96
32638;BME280;19045;52.268;10.506;2022-11-20T11:01:15;100073.22;;;2.89;61.02
32638;BME280;19045;52.268;10.506;2022-11-20T11:03:44;100069.63;;;2.46;63.39
32638;BME280;19045;52.268;10.506;2022-11-20T11:06:17;100067.59;;;2.10;65.54
32638;BME280;19045;52.268;10.506;2022-11-20T11:08:47;100057.50;;;3.37;60.26
32638;BME280;19045;52.268;10.506;2022-11-20T11:11:21;100062.50;;;4.18;57.95
32638;BME280;19045;52.268;10.506;2022-11-20T11:13:49;100056.56;;;6.60;51.00
32638;BME280;19045;52.268;10.506;2022-11-20T11:16:21;100053.25;;;9.67;43.85
32638;BME280;19045;52.268;10.506;2022-11-20T11:18:50;100056.53;;;9.00;43.20
32638;BME280;19045;52.268;10.506;2022-11-20T11:21:24;100055.72;;;9.78;42.68
32638;BME280;19045;52.268;10.506;2022-11-20T11:23:58;100050.44;;;13.90;35.32
32638;BME280;19045;52.268;10.506;2022-11-20T11:26:26;100047.31;;;17.13;30.16
32638;BME280;19045;52.268;10.506;2022-11-20T11:28:54;100046.16;;;17.98;29.21
32638;BME280;19045;52.268;10.506;2022-11-20T11:31:23;100049.91;;;15.37;30.89
32638;BME280;19045;52.268;10.506;2022-11-20T11:33:51;100049.59;;;13.08;33.89
32638;BME280;19045;52.268;10.506;2022-11-20T11:36:20;100052.53;;;10.54;38.54
32638;BME280;19045;52.268;10.506;2022-11-20T11:38:51;100044.66;;;14.20;33.29
32638;BME280;19045;52.268;10.506;2022-11-20T11:41:20;100038.75;;;12.46;34.41
32638;BME280;19045;52.268;10.506;2022-11-20T11:43:52;100047.66;;;9.78;39.27
32638;BME280;19045;52.268;10.506;2022-11-20T11:46:39;100041.44;;;8.57;41.25
32638;BME280;19045;52.268;10.506;2022-11-20T11:49:17;100030.56;;;8.42;42.80
32638;BME280;19045;52.268;10.506;2022-11-20T11:51:55;100039.53;;;7.27;44.54
32638;BME280;19045;52.268;10.506;2022-11-20T11:54:25;100040.81;;;7.42;45.66
32638;BME280;19045;52.268;10.506;2022-11-20T11:56:55;100036.63;;;8.11;43.39
32638;BME280;19045;52.268;10.506;2022-11-20T11:59:27;100028.94;;;6.66;46.04
32638;BME280;19045;52.268;10.506;2022-11-20T12:01:59;100041.63;;;4.63;52.24
32638;BME280;19045;52.268;10.506;2022-11-20T12:04:40;100033.25;;;6.10;50.71
32638;BME280;19045;52.268;10.506;2022-11-20T12:07:11;100026.50;;;10.95;41.15
32638;BME280;19045;52.268;10.506;2022-11-20T12:09:43;100026.50;;;10.84;38.96
32638;BME280;19045;52.268;10.506;2022-11-20T12:12:16;100022.88;;;5.74;49.27
32638;BME280;19045;52.268;10.506;2022-11-20T12:14:46;100021.91;;;6.03;48.94
32638;BME280;19045;52.268;10.506;2022-11-20T12:17:15;100027.22;;;4.82;52.01
32638;BME280;19045;52.268;10.506;2022-11-20T12:19:44;100032.81;;;3.12;58.25
32638;BME280;19045;52.268;10.506;2022-11-20T12:22:19;100024.97;;;2.18;61.23
32638;BME280;19045;52.268;10.506;2022-11-20T12:24:53;100030.81;;;1.89;64.19
32638;BME280;19045;52.268;10.506;2022-11-20T12:27:43;100036.69;;;1.97;64.33
32638;BME280;19045;52.268;10.506;2022-11-20T12:30:15;100042.16;;;2.02;63.78
32638;BME280;19045;52.268;10.506;2022-11-20T12:33:05;100030.66;;;2.22;62.87
32638;BME280;19045;52.268;10.506;2022-11-20T12:36:01;100023.03;;;2.63;62.16
32638;BME280;19045;52.268;10.506;2022-11-20T12:38:51;100018.53;;;2.64;61.71
32638;BME280;19045;52.268;10.506;2022-11-20T12:41:36;100022.00;;;2.33;63.15
32638;BME280;19045;52.268;10.506;2022-11-20T12:44:39;100018.44;;;2.21;63.66
32638;BME280;19045;52.268;10.506;2022-11-20T12:47:29;100028.66;;;2.11;64.45
32638;BME280;19045;52.268;10.506;2022-11-20T12:50:06;100023.28;;;1.86;65.24
32638;BME280;19045;52.268;10.506;2022-11-20T12:52:47;100022.50;;;1.79;66.28
32638;BME280;19045;52.268;10.506;2022-11-20T12:55:25;100017.16;;;1.92;66.28
32638;BME280;19045;52.268;10.506;2022-11-20T12:57:58;100011.06;;;2.23;65.91
32638;BME280;19045;52.268;10.506;2022-11-20T13:00:30;100013.09;;;2.52;64.26